createdAt,value
2018-06-23T00:00:46.724Z,2.50
2018-06-23T00:03:14.924Z,2.30
2018-06-23T00:05:43.132Z,2.27
2018-06-23T00:08:11.365Z,2.40
2018-06-23T00:10:39.552Z,2.50
2018-06-23T00:13:07.784Z,2.20
2018-06-23T00:15:36.044Z,2.33
2018-06-23T00:18:04.477Z,2.53
2018-06-23T00:20:32.680Z,2.60
2018-06-23T00:23:00.880Z,2.40
2018-06-23T00:25:34.530Z,2.40
2018-06-23T00:28:02.998Z,2.47
2018-06-23T00:30:31.206Z,2.70
2018-06-23T00:32:59.376Z,3.07
2018-06-23T00:35:27.612Z,2.67
2018-06-23T00:37:55.805Z,2.93
2018-06-23T00:40:24.038Z,2.57
2018-06-23T00:42:52.219Z,2.80
2018-06-23T00:45:20.396Z,2.93
2018-06-23T00:47:48.596Z,2.80
2018-06-23T00:50:16.828Z,2.60
2018-06-23T00:52:45.013Z,2.53
2018-06-23T00:55:13.200Z,2.50
2018-06-23T00:57:41.392Z,2.80
2018-06-23T01:00:09.600Z,3.00
2018-06-23T01:02:37.853Z,3.03
2018-06-23T01:05:06.068Z,3.03
2018-06-23T01:07:34.260Z,2.70
2018-06-23T01:10:02.485Z,3.90
2018-06-23T01:12:30.656Z,3.07
2018-06-23T01:14:58.873Z,2.83
2018-06-23T01:17:27.050Z,2.93
2018-06-23T01:19:55.241Z,2.90
2018-06-23T01:22:23.455Z,3.67
2018-06-23T01:24:51.756Z,2.80
2018-06-23T01:27:19.944Z,2.90
2018-06-23T01:29:48.110Z,2.70
2018-06-23T01:32:16.333Z,2.67
2018-06-23T01:34:44.532Z,2.67
2018-06-23T01:37:14.130Z,2.70
2018-06-23T01:39:42.312Z,2.30
2018-06-23T01:42:10.592Z,2.60
2018-06-23T01:44:41.276Z,2.83
2018-06-23T01:47:14.181Z,2.50
2018-06-23T01:49:43.112Z,2.77
2018-06-23T01:52:11.324Z,3.13
2018-06-23T01:54:39.505Z,2.50
2018-06-23T01:57:09.116Z,2.63
2018-06-23T01:59:38.456Z,2.77
2018-06-23T02:02:07.120Z,2.70
2018-06-23T02:04:36.215Z,2.63
2018-06-23T02:07:06.756Z,2.67
2018-06-23T02:09:36.047Z,2.70
2018-06-23T02:12:04.288Z,2.60
2018-06-23T02:14:37.792Z,2.57
2018-06-23T02:17:11.468Z,2.60
2018-06-23T02:20:42.344Z,2.77
2018-06-23T02:23:15.984Z,2.87
2018-06-23T02:25:49.570Z,2.90
2018-06-23T02:28:23.304Z,2.40
2018-06-23T02:30:56.686Z,2.23
2018-06-23T02:33:30.290Z,2.63
2018-06-23T02:35:58.472Z,2.37
2018-06-23T02:38:26.709Z,2.90
2018-06-23T02:40:54.916Z,2.70
2018-06-23T02:43:23.136Z,2.50
2018-06-23T02:45:51.334Z,2.50
2018-06-23T02:48:19.533Z,2.60
2018-06-23T02:50:47.720Z,2.60
2018-06-23T02:53:15.933Z,2.40
2018-06-23T02:55:45.180Z,2.93
2018-06-23T02:58:13.386Z,2.70
2018-06-23T03:00:41.553Z,3.07
2018-06-23T03:03:09.750Z,2.67
2018-06-23T03:05:37.976Z,2.60
2018-06-23T03:08:06.403Z,2.67
2018-06-23T03:10:34.604Z,2.57
2018-06-23T03:13:02.806Z,2.60
2018-06-23T03:15:31.008Z,2.80
2018-06-23T03:17:59.241Z,3.37
2018-06-23T03:20:27.892Z,2.73
2018-06-23T03:22:56.292Z,2.50
2018-06-23T03:25:24.481Z,2.90
2018-06-23T03:27:52.668Z,2.40
2018-06-23T03:30:20.909Z,3.30
2018-06-23T03:32:49.095Z,2.90
2018-06-23T03:35:17.296Z,2.90
2018-06-23T03:37:45.604Z,3.30
2018-06-23T03:40:13.568Z,3.17
2018-06-23T03:42:41.760Z,3.40
2018-06-23T03:45:09.758Z,3.20
2018-06-23T03:47:37.961Z,3.10
2018-06-23T03:50:06.164Z,2.63
2018-06-23T03:52:34.374Z,3.30
2018-06-23T03:55:02.761Z,3.00
2018-06-23T03:57:30.945Z,3.53
2018-06-23T03:59:59.144Z,3.27
2018-06-23T04:02:27.545Z,5.50
2018-06-23T04:04:55.796Z,4.17
2018-06-23T04:07:23.997Z,3.80
2018-06-23T04:09:51.975Z,3.10
2018-06-23T04:12:20.164Z,3.33
2018-06-23T04:14:48.397Z,3.67
2018-06-23T04:17:16.612Z,3.90
2018-06-23T04:19:44.804Z,3.47
2018-06-23T04:22:12.976Z,2.90
2018-06-23T04:24:41.165Z,3.23
2018-06-23T04:27:09.358Z,3.10
2018-06-23T04:29:37.552Z,3.10
2018-06-23T04:32:05.992Z,3.30
2018-06-23T04:34:34.193Z,3.23
2018-06-23T04:37:02.388Z,3.60
2018-06-23T04:39:30.572Z,3.43
2018-06-23T04:41:58.796Z,3.40
2018-06-23T04:44:27.008Z,3.27
2018-06-23T04:46:55.196Z,3.30
2018-06-23T04:49:23.416Z,3.10
2018-06-23T04:51:51.784Z,3.53
2018-06-23T04:54:19.977Z,3.57
2018-06-23T04:56:48.149Z,3.47
2018-06-23T04:59:16.328Z,3.40
2018-06-23T05:01:44.540Z,3.03
2018-06-23T05:04:12.773Z,3.50
2018-06-23T05:06:40.987Z,3.13
2018-06-23T05:09:09.168Z,2.70
2018-06-23T05:11:37.576Z,3.20
2018-06-23T05:14:05.940Z,3.27
2018-06-23T05:16:34.144Z,3.13
2018-06-23T05:19:02.444Z,3.00
2018-06-23T05:21:30.667Z,4.90
2018-06-23T05:23:58.852Z,3.30
2018-06-23T05:26:27.060Z,3.43
2018-06-23T05:28:55.314Z,4.03
2018-06-23T05:31:23.613Z,3.20
2018-06-23T05:33:51.804Z,3.70
2018-06-23T05:36:20.027Z,3.33
2018-06-23T05:38:48.206Z,3.37
2018-06-23T05:41:16.404Z,3.53
2018-06-23T05:43:44.596Z,3.40
2018-06-23T05:46:12.844Z,3.40
2018-06-23T05:48:41.029Z,3.30
2018-06-23T05:51:09.265Z,3.53
2018-06-23T05:53:37.460Z,3.27
2018-06-23T05:56:05.667Z,3.90
2018-06-23T05:58:33.870Z,4.20
2018-06-23T06:01:02.033Z,3.50
2018-06-23T06:03:30.260Z,3.70
2018-06-23T06:05:58.528Z,3.70
2018-06-23T06:08:26.713Z,6.13
2018-06-23T06:10:54.892Z,4.10
2018-06-23T06:13:23.130Z,3.70
2018-06-23T06:15:51.369Z,3.90
2018-06-23T06:18:19.742Z,4.00
2018-06-23T06:20:48.059Z,4.20
2018-06-23T06:23:16.284Z,3.97
2018-06-23T06:25:44.495Z,3.73
2018-06-23T06:28:12.752Z,3.60
2018-06-23T06:30:40.974Z,3.77
2018-06-23T06:33:09.184Z,3.50
2018-06-23T06:35:37.407Z,3.70
2018-06-23T06:38:05.747Z,3.40
2018-06-23T06:40:34.096Z,4.10
2018-06-23T06:43:02.369Z,4.23
2018-06-23T06:45:30.569Z,3.47
2018-06-23T06:47:58.765Z,3.50
2018-06-23T06:50:27.045Z,3.77
2018-06-23T06:52:55.272Z,4.73
2018-06-23T06:55:23.644Z,3.70
2018-06-23T06:57:51.884Z,3.77
2018-06-23T07:00:20.089Z,3.67
2018-06-23T07:02:48.601Z,3.80
2018-06-23T07:05:16.821Z,3.50
2018-06-23T07:07:45.673Z,3.27
2018-06-23T07:10:13.887Z,3.40
2018-06-23T07:12:42.075Z,6.60
2018-06-23T07:15:11.651Z,3.70
2018-06-23T07:17:39.963Z,3.10
2018-06-23T07:20:08.155Z,3.17
2018-06-23T07:22:36.474Z,3.20
2018-06-23T07:25:04.837Z,3.20
2018-06-23T07:27:33.032Z,3.00
2018-06-23T07:30:01.315Z,3.17
2018-06-23T07:32:29.484Z,3.10
2018-06-23T07:34:57.915Z,2.90
2018-06-23T07:37:25.970Z,2.80
2018-06-23T07:39:54.189Z,3.27
2018-06-23T07:42:22.464Z,3.77
2018-06-23T07:44:50.689Z,2.93
2018-06-23T07:47:18.876Z,2.97
2018-06-23T07:49:47.092Z,3.40
2018-06-23T07:52:15.288Z,3.00
2018-06-23T07:54:43.476Z,2.97
2018-06-23T07:57:11.688Z,2.90
2018-06-23T07:59:39.904Z,3.90
2018-06-23T08:02:08.160Z,2.87
2018-06-23T08:04:36.422Z,3.30
2018-06-23T08:07:04.665Z,3.00
2018-06-23T08:09:32.903Z,2.77
2018-06-23T08:12:01.104Z,3.43
2018-06-23T08:14:29.297Z,3.23
2018-06-23T08:16:57.576Z,3.13
2018-06-23T08:19:25.788Z,4.67
2018-06-23T08:21:54.000Z,3.50
2018-06-23T08:24:22.179Z,3.03
2018-06-23T08:26:50.396Z,3.40
2018-06-23T08:29:18.649Z,3.67
2018-06-23T08:31:46.873Z,3.10
2018-06-23T08:34:15.074Z,3.70
2018-06-23T08:36:43.264Z,2.97
2018-06-23T08:39:11.493Z,3.30
2018-06-23T08:41:39.717Z,3.27
2018-06-23T08:44:07.903Z,3.30
2018-06-23T08:46:36.240Z,3.10
2018-06-23T08:49:04.469Z,3.17
2018-06-23T08:51:32.716Z,2.37
2018-06-23T08:54:00.910Z,3.63
2018-06-23T08:56:29.128Z,2.90
2018-06-23T08:58:57.349Z,3.37
2018-06-23T09:01:25.545Z,2.73
2018-06-23T09:03:53.760Z,3.17
2018-06-23T09:06:21.985Z,2.67
2018-06-23T09:08:50.189Z,2.90
2018-06-23T09:11:18.387Z,2.43
2018-06-23T09:13:46.589Z,2.50
2018-06-23T09:16:14.820Z,2.30
2018-06-23T09:18:43.048Z,2.30
2018-06-23T09:21:11.225Z,2.40
2018-06-23T09:23:39.404Z,2.60
2018-06-23T09:26:07.626Z,2.90
2018-06-23T09:28:35.860Z,2.60
2018-06-23T09:31:04.089Z,4.43
2018-06-23T09:33:32.300Z,5.03
2018-06-23T09:36:00.503Z,3.30
2018-06-23T09:38:29.000Z,2.83
2018-06-23T09:40:57.240Z,2.40
2018-06-23T09:43:25.590Z,3.00
2018-06-23T09:45:53.887Z,2.73
2018-06-23T09:48:22.060Z,3.00
2018-06-23T09:50:50.319Z,3.07
2018-06-23T09:53:18.527Z,3.23
2018-06-23T09:55:46.768Z,2.60
2018-06-23T09:58:15.007Z,2.50
2018-06-23T10:00:43.196Z,2.43
2018-06-23T10:03:11.494Z,2.90
2018-06-23T10:05:39.706Z,3.00
2018-06-23T10:08:07.921Z,3.70
2018-06-23T10:10:36.105Z,2.40
2018-06-23T10:13:04.326Z,2.77
2018-06-23T10:15:32.661Z,13.20
2018-06-23T10:18:00.795Z,4.10
2018-06-23T10:20:28.739Z,3.00
2018-06-23T10:22:57.038Z,4.77
2018-06-23T10:25:25.284Z,3.60
2018-06-23T10:27:53.473Z,5.00
2018-06-23T10:30:21.673Z,3.40
2018-06-23T10:32:49.860Z,3.20
2018-06-23T10:35:18.060Z,4.20
2018-06-23T10:37:46.295Z,2.60
2018-06-23T10:40:14.572Z,2.60
2018-06-23T10:42:42.783Z,2.97
2018-06-23T10:45:10.977Z,2.73
2018-06-23T10:47:39.167Z,2.77
2018-06-23T10:50:07.401Z,3.30
2018-06-23T10:52:35.593Z,2.70
2018-06-23T10:55:03.808Z,2.60
2018-06-23T10:57:32.017Z,2.60
2018-06-23T11:00:00.211Z,3.10
2018-06-23T11:02:28.549Z,3.00
2018-06-23T11:04:56.888Z,2.77
2018-06-23T11:07:24.932Z,3.43
2018-06-23T11:09:53.111Z,3.40
2018-06-23T11:12:21.309Z,2.90
2018-06-23T11:14:49.564Z,2.90
2018-06-23T11:17:17.741Z,3.57
2018-06-23T11:19:45.970Z,2.67
2018-06-23T11:22:14.180Z,3.00
2018-06-23T11:24:42.392Z,3.07
2018-06-23T11:27:10.608Z,2.60
2018-06-23T11:29:38.820Z,3.00
2018-06-23T11:32:07.049Z,3.50
2018-06-23T11:34:35.220Z,3.10
2018-06-23T11:37:03.785Z,3.10
2018-06-23T11:39:32.030Z,3.27
2018-06-23T11:42:00.224Z,2.67
2018-06-23T11:44:28.459Z,2.60
2018-06-23T11:46:56.637Z,3.47
2018-06-23T11:49:24.897Z,3.10
2018-06-23T11:51:53.246Z,3.13
2018-06-23T11:54:21.428Z,3.13
2018-06-23T11:56:49.605Z,3.60
2018-06-23T11:59:17.948Z,3.00
2018-06-23T12:01:46.191Z,2.87
2018-06-23T12:04:19.708Z,2.90
2018-06-23T12:06:47.932Z,2.90
2018-06-23T12:09:16.406Z,3.20
2018-06-23T12:11:45.353Z,3.20
2018-06-23T12:14:13.536Z,3.13
2018-06-23T12:16:41.715Z,2.93
2018-06-23T12:19:09.679Z,3.30
2018-06-23T12:21:38.112Z,3.20
2018-06-23T12:24:06.414Z,3.17
2018-06-23T12:26:34.847Z,3.17
2018-06-23T12:29:03.045Z,3.33
2018-06-23T12:31:31.521Z,3.27
2018-06-23T12:34:00.069Z,3.70
2018-06-23T12:36:28.284Z,3.37
2018-06-23T12:38:56.494Z,2.80
2018-06-23T12:41:24.741Z,2.70
2018-06-23T12:43:52.954Z,2.50
2018-06-23T12:46:21.213Z,2.93
2018-06-23T12:48:49.384Z,3.00
2018-06-23T12:51:17.568Z,2.87
2018-06-23T12:53:45.752Z,3.37
2018-06-23T12:56:13.976Z,3.43
2018-06-23T12:58:42.146Z,3.03
2018-06-23T13:01:10.376Z,3.63
2018-06-23T13:03:38.552Z,3.20
2018-06-23T13:06:06.743Z,3.20
2018-06-23T13:08:34.968Z,3.60
2018-06-23T13:11:03.196Z,3.30
2018-06-23T13:13:31.376Z,3.47
2018-06-23T13:15:59.561Z,3.60
2018-06-23T13:18:27.736Z,3.30
2018-06-23T13:20:55.941Z,3.50
2018-06-23T13:23:24.156Z,2.83
2018-06-23T13:25:52.340Z,3.80
2018-06-23T13:28:20.531Z,3.47
2018-06-23T13:30:48.791Z,3.20
2018-06-23T13:33:17.009Z,3.50
2018-06-23T13:35:45.204Z,3.70
2018-06-23T13:38:13.620Z,3.60
2018-06-23T13:40:41.800Z,3.60
2018-06-23T13:43:10.141Z,4.00
2018-06-23T13:45:38.467Z,4.57
2018-06-23T13:48:06.701Z,4.40
2018-06-23T13:50:34.876Z,4.17
2018-06-23T13:53:02.836Z,5.83
2018-06-23T13:55:31.636Z,4.87
2018-06-23T13:57:59.808Z,5.40
2018-06-23T14:00:28.028Z,4.43
2018-06-23T14:02:56.220Z,5.10
2018-06-23T14:05:24.424Z,4.70
2018-06-23T14:07:52.668Z,4.57
2018-06-23T14:10:20.874Z,4.20
2018-06-23T14:12:49.053Z,4.50
2018-06-23T14:15:17.417Z,4.27
2018-06-23T14:17:45.589Z,4.00
2018-06-23T14:20:13.776Z,3.60
2018-06-23T14:22:42.152Z,3.60
2018-06-23T14:25:10.332Z,2.90
2018-06-23T14:27:38.504Z,3.33
2018-06-23T14:30:06.740Z,2.77
2018-06-23T14:32:35.042Z,2.80
2018-06-23T14:35:03.148Z,2.93
2018-06-23T14:37:31.315Z,2.90
2018-06-23T14:39:59.504Z,2.90
2018-06-23T14:42:27.749Z,3.23
2018-06-23T14:44:55.688Z,3.20
2018-06-23T14:47:23.872Z,3.00
2018-06-23T14:49:52.069Z,4.70
2018-06-23T14:52:20.312Z,3.20
2018-06-23T14:54:48.808Z,3.07
2018-06-23T14:57:17.001Z,3.53
2018-06-23T14:59:45.214Z,2.90
2018-06-23T15:02:13.404Z,2.97
2018-06-23T15:04:41.594Z,3.10
2018-06-23T15:07:09.813Z,3.07
2018-06-23T15:09:49.256Z,3.13
2018-06-23T15:12:28.932Z,3.27
2018-06-23T15:14:57.109Z,2.90
2018-06-23T15:17:25.304Z,2.90
2018-06-23T15:19:53.481Z,2.70
2018-06-23T15:22:21.704Z,2.77
2018-06-23T15:24:50.173Z,3.00
2018-06-23T15:27:18.456Z,3.17
2018-06-23T15:29:46.624Z,2.90
2018-06-23T15:32:14.817Z,3.30
2018-06-23T15:34:43.210Z,3.13
2018-06-23T15:37:11.393Z,3.70
2018-06-23T15:39:39.568Z,3.80
2018-06-23T15:42:07.786Z,3.80
2018-06-23T15:44:36.013Z,3.70
2018-06-23T15:47:04.266Z,3.40
2018-06-23T15:49:32.392Z,4.10
2018-06-23T15:52:00.378Z,3.70
2018-06-23T15:54:28.549Z,3.90
2018-06-23T15:56:56.760Z,4.60
2018-06-23T15:59:25.135Z,4.30
2018-06-23T16:01:53.720Z,4.20
2018-06-23T16:04:21.917Z,3.87
2018-06-23T16:06:50.130Z,4.30
2018-06-23T16:09:18.349Z,3.60
2018-06-23T16:11:46.538Z,3.97
2018-06-23T16:14:14.712Z,4.30
2018-06-23T16:16:42.884Z,3.80
2018-06-23T16:19:11.084Z,4.20
2018-06-23T16:21:39.280Z,4.40
2018-06-23T16:24:07.470Z,4.97
2018-06-23T16:26:35.808Z,3.83
2018-06-23T16:29:04.044Z,3.87
2018-06-23T16:31:32.233Z,4.10
2018-06-23T16:34:00.416Z,3.83
2018-06-23T16:36:28.596Z,3.97
2018-06-23T16:38:56.785Z,3.70
2018-06-23T16:41:24.969Z,4.30
2018-06-23T16:43:53.192Z,4.20
2018-06-23T16:46:21.388Z,4.43
2018-06-23T16:48:49.592Z,4.30
2018-06-23T16:51:17.789Z,4.07
2018-06-23T16:53:45.988Z,3.80
2018-06-23T16:56:14.337Z,3.97
2018-06-23T16:58:42.524Z,4.17
2018-06-23T17:01:10.725Z,4.20
2018-06-23T17:03:39.003Z,4.00
2018-06-23T17:06:07.124Z,3.97
2018-06-23T17:08:35.340Z,4.23
2018-06-23T17:11:03.532Z,4.00
2018-06-23T17:13:31.710Z,3.90
2018-06-23T17:15:59.900Z,4.00
2018-06-23T17:18:28.125Z,3.83
2018-06-23T17:20:56.340Z,4.17
2018-06-23T17:23:24.508Z,4.00
2018-06-23T17:25:52.689Z,3.90
2018-06-23T17:28:20.924Z,4.10
2018-06-23T17:30:49.204Z,3.50
2018-06-23T17:33:17.386Z,3.53
2018-06-23T17:35:45.576Z,3.47
2018-06-23T17:38:13.762Z,3.47
2018-06-23T17:40:41.951Z,4.20
2018-06-23T17:43:10.163Z,3.70
2018-06-23T17:45:38.808Z,4.27
2018-06-23T17:48:07.288Z,3.57
2018-06-23T17:50:35.496Z,3.47
2018-06-23T17:53:03.697Z,3.90
2018-06-23T17:55:32.505Z,4.10
2018-06-23T17:58:00.716Z,4.03
2018-06-23T18:00:28.920Z,3.63
2018-06-23T18:02:57.105Z,3.70
2018-06-23T18:05:25.308Z,3.80
2018-06-23T18:07:53.496Z,4.30
2018-06-23T18:10:21.695Z,4.33
2018-06-23T18:12:49.875Z,5.27
2018-06-23T18:15:18.056Z,4.47
2018-06-23T18:17:46.260Z,9.87
2018-06-23T18:20:14.472Z,5.80
2018-06-23T18:22:42.657Z,7.73
2018-06-23T18:25:11.040Z,5.33
2018-06-23T18:27:39.404Z,5.10
2018-06-23T18:30:07.371Z,4.97
2018-06-23T18:32:35.660Z,4.70
2018-06-23T18:35:03.897Z,7.33
2018-06-23T18:37:32.118Z,5.53
2018-06-23T18:40:00.289Z,5.13
2018-06-23T18:42:28.529Z,5.67
2018-06-23T18:44:56.908Z,5.10
2018-06-23T18:47:25.101Z,4.47
2018-06-23T18:49:53.272Z,4.57
2018-06-23T18:52:21.515Z,5.50
2018-06-23T18:54:50.056Z,4.20
2018-06-23T18:57:18.233Z,4.57
2018-06-23T18:59:46.476Z,5.47
2018-06-23T19:02:14.453Z,4.63
2018-06-23T19:04:42.648Z,12.67
2018-06-23T19:07:11.024Z,5.77
2018-06-23T19:09:39.410Z,5.33
2018-06-23T19:12:07.577Z,4.70
2018-06-23T19:14:35.785Z,7.13
2018-06-23T19:17:04.034Z,5.90
2018-06-23T19:19:32.220Z,5.20
2018-06-23T19:22:00.409Z,5.37
2018-06-23T19:24:28.608Z,4.57
2018-06-23T19:26:56.784Z,5.10
2018-06-23T19:29:25.016Z,5.07
2018-06-23T19:31:53.189Z,4.27
2018-06-23T19:34:21.386Z,5.23
2018-06-23T19:36:49.579Z,4.70
2018-06-23T19:39:17.805Z,5.10
2018-06-23T19:41:46.012Z,5.90
2018-06-23T19:44:14.226Z,5.10
2018-06-23T19:46:42.508Z,6.07
2018-06-23T19:49:10.901Z,5.40
2018-06-23T19:51:39.080Z,4.93
2018-06-23T19:54:07.372Z,4.60
2018-06-23T19:56:35.577Z,7.17
2018-06-23T19:59:03.821Z,5.70
2018-06-23T20:01:31.972Z,5.57
2018-06-23T20:04:00.168Z,6.17
2018-06-23T20:06:28.432Z,5.93
2018-06-23T20:08:56.606Z,5.30
2018-06-23T20:11:24.785Z,5.13
2018-06-23T20:13:52.960Z,5.70
2018-06-23T20:16:21.201Z,4.97
2018-06-23T20:18:49.420Z,5.93
2018-06-23T20:21:17.672Z,5.80
2018-06-23T20:23:45.869Z,6.33
2018-06-23T20:26:14.061Z,5.47
2018-06-23T20:28:42.572Z,5.97
2018-06-23T20:31:10.789Z,5.57
2018-06-23T20:33:38.956Z,6.03
2018-06-23T20:36:07.189Z,6.23
2018-06-23T20:38:35.377Z,6.30
2018-06-23T20:41:03.600Z,6.10
2018-06-23T20:43:31.784Z,6.17
2018-06-23T20:45:59.992Z,5.97
2018-06-23T20:48:27.959Z,6.47
2018-06-23T20:50:56.169Z,6.80
2018-06-23T20:53:24.540Z,5.83
2018-06-23T20:55:53.000Z,6.67
2018-06-23T20:58:21.237Z,6.67
2018-06-23T21:00:49.437Z,6.90
2018-06-23T21:03:17.673Z,6.27
2018-06-23T21:05:45.868Z,6.30
2018-06-23T21:08:14.070Z,6.40
2018-06-23T21:10:43.679Z,6.23
2018-06-23T21:13:12.266Z,5.90
2018-06-23T21:15:40.487Z,6.00
2018-06-23T21:18:09.596Z,6.07
2018-06-23T21:20:37.772Z,6.00
2018-06-23T21:23:06.013Z,6.13
2018-06-23T21:25:34.209Z,6.13
2018-06-23T21:28:02.448Z,6.10
2018-06-23T21:30:30.660Z,5.97
2018-06-23T21:32:58.856Z,5.77
2018-06-23T21:35:27.050Z,6.10
2018-06-23T21:37:55.277Z,6.80
2018-06-23T21:40:23.458Z,6.07
2018-06-23T21:42:51.667Z,6.67
2018-06-23T21:45:20.009Z,6.50
2018-06-23T21:47:48.185Z,7.20
2018-06-23T21:50:16.376Z,6.83
2018-06-23T21:52:44.568Z,6.33
2018-06-23T21:55:12.757Z,6.57
2018-06-23T21:57:40.929Z,6.37
2018-06-23T22:00:24.884Z,6.60
2018-06-23T22:02:53.092Z,6.33
2018-06-23T22:05:21.306Z,6.80
2018-06-23T22:07:49.281Z,6.73
2018-06-23T22:10:17.560Z,7.10
2018-06-23T22:12:45.810Z,6.87
2018-06-23T22:15:14.041Z,7.50
2018-06-23T22:17:42.314Z,7.70
2018-06-23T22:20:10.459Z,7.60
2018-06-23T22:22:38.669Z,7.80
2018-06-23T22:25:06.958Z,7.67
2018-06-23T22:27:35.172Z,7.70
2018-06-23T22:30:03.434Z,7.50
2018-06-23T22:32:31.633Z,7.50
2018-06-23T22:34:59.649Z,7.90
2018-06-23T22:37:27.894Z,8.17
2018-06-23T22:39:56.090Z,7.87
2018-06-23T22:42:24.316Z,7.37
2018-06-23T22:44:52.500Z,7.77
2018-06-23T22:47:20.772Z,7.50
2018-06-23T22:49:49.020Z,7.70
2018-06-23T22:52:17.216Z,8.10
2018-06-23T22:54:45.481Z,7.20
2018-06-23T22:57:13.717Z,7.43
2018-06-23T22:59:41.904Z,8.10
2018-06-23T23:02:10.349Z,8.27
2018-06-23T23:04:38.721Z,7.83
2018-06-23T23:07:06.673Z,7.47
2018-06-23T23:09:34.875Z,8.17
2018-06-23T23:12:03.830Z,8.50
2018-06-23T23:14:32.118Z,8.53
2018-06-23T23:17:00.309Z,7.47
2018-06-23T23:19:28.672Z,7.93
2018-06-23T23:21:56.672Z,7.80
2018-06-23T23:24:24.900Z,6.87
2018-06-23T23:26:53.139Z,7.73
2018-06-23T23:29:21.320Z,7.03
2018-06-23T23:31:49.516Z,7.73
2018-06-23T23:34:17.715Z,7.50
2018-06-23T23:36:45.815Z,7.13
2018-06-23T23:39:14.040Z,7.60
2018-06-23T23:41:42.888Z,7.37
2018-06-23T23:44:11.084Z,7.10
2018-06-23T23:46:39.288Z,6.93
2018-06-23T23:49:07.521Z,7.33
2018-06-23T23:51:35.921Z,7.07
2018-06-23T23:54:04.192Z,7.10
2018-06-23T23:56:32.360Z,6.50
2018-06-23T23:59:00.571Z,6.70
